sensor_id;sensor_type;location;lat;lon;timestamp;temperature;humidity
32322;DHT22;61553;48.994;8.940;2024-03-23T00:55:28;5.90;99.90
32322;DHT22;61553;48.994;8.940;2024-03-23T00:57:53;6.00;99.90
32322;DHT22;61553;48.994;8.940;2024-03-23T01:00:19;6.00;99.90
32322;DHT22;61553;48.994;8.940;2024-03-23T01:02:44;6.10;99.90
32322;DHT22;61553;48.994;8.940;2024-03-23T01:05:10;6.20;99.90
32322;DHT22;61553;48.994;8.940;2024-03-23T01:07:36;6.20;99.90
32322;DHT22;61553;48.994;8.940;2024-03-23T01:10:01;6.20;99.90
32322;DHT22;61553;48.994;8.940;2024-03-23T01:12:27;6.20;99.90
32322;DHT22;61553;48.994;8.940;2024-03-23T01:14:52;6.20;99.90
32322;DHT22;61553;48.994;8.940;2024-03-23T01:17:18;6.10;99.90
32322;DHT22;61553;48.994;8.940;2024-03-23T01:19:44;6.20;99.90
32322;DHT22;61553;48.994;8.940;2024-03-23T01:22:09;6.20;99.90
32322;DHT22;61553;48.994;8.940;2024-03-23T01:24:35;6.20;99.90
32322;DHT22;61553;48.994;8.940;2024-03-23T01:27:01;6.30;99.90
32322;DHT22;61553;48.994;8.940;2024-03-23T01:29:27;6.20;99.90
32322;DHT22;61553;48.994;8.940;2024-03-23T01:31:52;6.20;99.90
32322;DHT22;61553;48.994;8.940;2024-03-23T01:34:18;6.10;99.90
32322;DHT22;61553;48.994;8.940;2024-03-23T01:36:44;6.10;99.90
32322;DHT22;61553;48.994;8.940;2024-03-23T01:39:12;6.20;99.90
32322;DHT22;61553;48.994;8.940;2024-03-23T01:41:37;6.30;99.90
32322;DHT22;61553;48.994;8.940;2024-03-23T01:44:06;6.20;99.90
32322;DHT22;61553;48.994;8.940;2024-03-23T01:46:37;6.20;99.90
32322;DHT22;61553;48.994;8.940;2024-03-23T01:49:06;6.30;99.90
32322;DHT22;61553;48.994;8.940;2024-03-23T01:51:33;6.30;99.90
32322;DHT22;61553;48.994;8.940;2024-03-23T01:54:00;6.40;99.90
32322;DHT22;61553;48.994;8.940;2024-03-23T01:56:34;6.40;99.90
32322;DHT22;61553;48.994;8.940;2024-03-23T01:59:09;6.30;99.90
32322;DHT22;61553;48.994;8.940;2024-03-23T02:01:35;6.30;99.90
32322;DHT22;61553;48.994;8.940;2024-03-23T02:04:04;6.20;99.90
32322;DHT22;61553;48.994;8.940;2024-03-23T02:06:30;6.10;99.90
32322;DHT22;61553;48.994;8.940;2024-03-23T02:08:56;6.00;99.90
32322;DHT22;61553;48.994;8.940;2024-03-23T02:11:22;5.90;99.90
32322;DHT22;61553;48.994;8.940;2024-03-23T02:13:47;5.80;99.90
32322;DHT22;61553;48.994;8.940;2024-03-23T02:16:13;5.70;99.90
32322;DHT22;61553;48.994;8.940;2024-03-23T02:18:39;5.80;99.90
32322;DHT22;61553;48.994;8.940;2024-03-23T02:21:05;5.80;99.90
32322;DHT22;61553;48.994;8.940;2024-03-23T02:23:30;5.70;99.90
32322;DHT22;61553;48.994;8.940;2024-03-23T02:25:56;5.70;99.90
32322;DHT22;61553;48.994;8.940;2024-03-23T02:28:22;5.50;99.90
32322;DHT22;61553;48.994;8.940;2024-03-23T02:30:51;5.50;99.90
32322;DHT22;61553;48.994;8.940;2024-03-23T02:33:16;5.50;99.90
32322;DHT22;61553;48.994;8.940;2024-03-23T02:35:43;5.50;99.90
32322;DHT22;61553;48.994;8.940;2024-03-23T02:38:09;5.70;99.90
32322;DHT22;61553;48.994;8.940;2024-03-23T02:40:35;5.80;99.90
32322;DHT22;61553;48.994;8.940;2024-03-23T02:43:02;5.90;99.90
32322;DHT22;61553;48.994;8.940;2024-03-23T02:45:28;6.00;99.90
32322;DHT22;61553;48.994;8.940;2024-03-23T02:47:54;6.10;99.90
32322;DHT22;61553;48.994;8.940;2024-03-23T02:50:20;6.20;99.90
32322;DHT22;61553;48.994;8.940;2024-03-23T02:52:46;6.30;99.90
32322;DHT22;61553;48.994;8.940;2024-03-23T02:55:12;6.30;99.90
32322;DHT22;61553;48.994;8.940;2024-03-23T02:57:37;6.40;99.90
32322;DHT22;61553;48.994;8.940;2024-03-23T03:00:04;6.40;99.90
32322;DHT22;61553;48.994;8.940;2024-03-23T03:02:30;6.50;99.90
32322;DHT22;61553;48.994;8.940;2024-03-23T03:04:56;6.50;99.90
32322;DHT22;61553;48.994;8.940;2024-03-23T03:07:22;6.50;99.90
32322;DHT22;61553;48.994;8.940;2024-03-23T03:09:47;6.60;99.90
32322;DHT22;61553;48.994;8.940;2024-03-23T03:12:13;6.50;99.90
32322;DHT22;61553;48.994;8.940;2024-03-23T03:14:38;6.60;99.90
32322;DHT22;61553;48.994;8.940;2024-03-23T03:17:04;6.70;99.90
32322;DHT22;61553;48.994;8.940;2024-03-23T03:19:30;6.80;99.90
32322;DHT22;61553;48.994;8.940;2024-03-23T03:21:55;6.90;99.90
32322;DHT22;61553;48.994;8.940;2024-03-23T03:24:21;7.10;99.90
32322;DHT22;61553;48.994;8.940;2024-03-23T03:26:47;7.30;99.90
32322;DHT22;61553;48.994;8.940;2024-03-23T03:29:12;7.30;99.90
32322;DHT22;61553;48.994;8.940;2024-03-23T03:31:42;7.40;99.90
32322;DHT22;61553;48.994;8.940;2024-03-23T03:34:08;7.50;99.90
32322;DHT22;61553;48.994;8.940;2024-03-23T03:36:33;7.60;99.90
32322;DHT22;61553;48.994;8.940;2024-03-23T03:38:59;7.70;99.90
32322;DHT22;61553;48.994;8.940;2024-03-23T03:41:25;7.80;99.90
32322;DHT22;61553;48.994;8.940;2024-03-23T03:43:50;7.80;99.90
32322;DHT22;61553;48.994;8.940;2024-03-23T03:46:16;7.90;99.90
32322;DHT22;61553;48.994;8.940;2024-03-23T03:48:42;8.00;99.90
32322;DHT22;61553;48.994;8.940;2024-03-23T03:51:10;8.30;99.90
32322;DHT22;61553;48.994;8.940;2024-03-23T03:53:35;8.60;99.90
32322;DHT22;61553;48.994;8.940;2024-03-23T03:56:01;9.00;99.90
32322;DHT22;61553;48.994;8.940;2024-03-23T03:58:27;9.30;99.90
32322;DHT22;61553;48.994;8.940;2024-03-23T04:00:53;9.70;99.90
32322;DHT22;61553;48.994;8.940;2024-03-23T04:03:19;10.10;99.90
32322;DHT22;61553;48.994;8.940;2024-03-23T04:05:53;10.30;99.90
32322;DHT22;61553;48.994;8.940;2024-03-23T04:08:19;10.50;99.90
32322;DHT22;61553;48.994;8.940;2024-03-23T04:10:45;10.60;99.90
32322;DHT22;61553;48.994;8.940;2024-03-23T04:13:14;10.60;99.90
32322;DHT22;61553;48.994;8.940;2024-03-23T04:15:40;10.70;99.90
32322;DHT22;61553;48.994;8.940;2024-03-23T04:18:06;10.80;99.90
32322;DHT22;61553;48.994;8.940;2024-03-23T04:20:32;10.80;99.90
32322;DHT22;61553;48.994;8.940;2024-03-23T04:22:58;10.80;99.90
32322;DHT22;61553;48.994;8.940;2024-03-23T04:25:24;10.80;99.90
32322;DHT22;61553;48.994;8.940;2024-03-23T04:27:50;10.80;99.90
32322;DHT22;61553;48.994;8.940;2024-03-23T04:30:15;10.80;99.90
32322;DHT22;61553;48.994;8.940;2024-03-23T04:32:41;10.70;99.90
32322;DHT22;61553;48.994;8.940;2024-03-23T04:35:08;10.70;99.90
32322;DHT22;61553;48.994;8.940;2024-03-23T04:37:37;10.70;99.90
32322;DHT22;61553;48.994;8.940;2024-03-23T04:40:03;10.60;99.90
32322;DHT22;61553;48.994;8.940;2024-03-23T04:42:29;10.60;99.90
32322;DHT22;61553;48.994;8.940;2024-03-23T04:44:55;10.70;99.90
32322;DHT22;61553;48.994;8.940;2024-03-23T04:47:21;10.60;99.90
32322;DHT22;61553;48.994;8.940;2024-03-23T04:49:47;10.60;99.90
32322;DHT22;61553;48.994;8.940;2024-03-23T04:52:12;10.60;99.90
32322;DHT22;61553;48.994;8.940;2024-03-23T04:54:38;10.60;99.90
32322;DHT22;61553;48.994;8.940;2024-03-23T04:57:06;10.50;99.90
32322;DHT22;61553;48.994;8.940;2024-03-23T04:59:31;10.50;99.90
32322;DHT22;61553;48.994;8.940;2024-03-23T05:01:57;10.40;99.90
32322;DHT22;61553;48.994;8.940;2024-03-23T05:04:23;10.40;99.90
32322;DHT22;61553;48.994;8.940;2024-03-23T05:06:48;10.40;99.90
32322;DHT22;61553;48.994;8.940;2024-03-23T05:09:14;10.40;99.90
32322;DHT22;61553;48.994;8.940;2024-03-23T05:11:40;10.40;99.90
32322;DHT22;61553;48.994;8.940;2024-03-23T05:14:07;10.40;99.90
32322;DHT22;61553;48.994;8.940;2024-03-23T05:16:33;10.30;99.90
32322;DHT22;61553;48.994;8.940;2024-03-23T05:18:58;10.30;99.90
32322;DHT22;61553;48.994;8.940;2024-03-23T05:21:24;10.30;99.90
32322;DHT22;61553;48.994;8.940;2024-03-23T05:23:50;10.20;99.90
32322;DHT22;61553;48.994;8.940;2024-03-23T05:26:17;10.10;99.90
32322;DHT22;61553;48.994;8.940;2024-03-23T05:28:42;10.00;99.90
32322;DHT22;61553;48.994;8.940;2024-03-23T05:31:09;10.00;99.90
32322;DHT22;61553;48.994;8.940;2024-03-23T05:33:36;9.90;99.90
32322;DHT22;61553;48.994;8.940;2024-03-23T05:36:03;9.80;99.90
32322;DHT22;61553;48.994;8.940;2024-03-23T05:38:29;9.80;99.90
32322;DHT22;61553;48.994;8.940;2024-03-23T05:40:59;9.70;99.90
32322;DHT22;61553;48.994;8.940;2024-03-23T05:43:25;9.70;99.90
32322;DHT22;61553;48.994;8.940;2024-03-23T05:45:58;9.70;99.90
32322;DHT22;61553;48.994;8.940;2024-03-23T05:48:24;9.70;99.90
32322;DHT22;61553;48.994;8.940;2024-03-23T05:50:50;9.70;99.90
32322;DHT22;61553;48.994;8.940;2024-03-23T05:53:17;9.70;99.90
32322;DHT22;61553;48.994;8.940;2024-03-23T05:55:43;9.70;99.90
32322;DHT22;61553;48.994;8.940;2024-03-23T05:58:09;9.70;99.90
32322;DHT22;61553;48.994;8.940;2024-03-23T06:00:36;9.60;99.90
32322;DHT22;61553;48.994;8.940;2024-03-23T06:03:02;9.60;99.90
32322;DHT22;61553;48.994;8.940;2024-03-23T06:05:28;9.50;99.90
32322;DHT22;61553;48.994;8.940;2024-03-23T06:07:53;9.40;99.90
32322;DHT22;61553;48.994;8.940;2024-03-23T06:10:19;9.30;99.90
32322;DHT22;61553;48.994;8.940;2024-03-23T06:12:48;9.30;99.90
32322;DHT22;61553;48.994;8.940;2024-03-23T06:15:14;9.30;99.90
32322;DHT22;61553;48.994;8.940;2024-03-23T06:17:40;9.20;99.90
32322;DHT22;61553;48.994;8.940;2024-03-23T06:20:06;9.20;99.90
32322;DHT22;61553;48.994;8.940;2024-03-23T06:22:32;9.20;99.90
32322;DHT22;61553;48.994;8.940;2024-03-23T06:24:59;9.20;99.90
32322;DHT22;61553;48.994;8.940;2024-03-23T06:27:24;9.20;99.90
32322;DHT22;61553;48.994;8.940;2024-03-23T06:29:50;9.20;99.90
32322;DHT22;61553;48.994;8.940;2024-03-23T06:32:17;9.10;99.90
32322;DHT22;61553;48.994;8.940;2024-03-23T06:34:42;9.10;99.90
32322;DHT22;61553;48.994;8.940;2024-03-23T06:37:08;9.10;99.90
32322;DHT22;61553;48.994;8.940;2024-03-23T06:39:35;9.10;99.90
32322;DHT22;61553;48.994;8.940;2024-03-23T06:42:02;9.10;99.90
32322;DHT22;61553;48.994;8.940;2024-03-23T06:44:27;9.20;99.90
32322;DHT22;61553;48.994;8.940;2024-03-23T06:46:53;9.30;99.90
32322;DHT22;61553;48.994;8.940;2024-03-23T06:49:19;9.30;99.90
32322;DHT22;61553;48.994;8.940;2024-03-23T06:51:45;9.30;99.90
32322;DHT22;61553;48.994;8.940;2024-03-23T06:54:11;9.30;99.90
32322;DHT22;61553;48.994;8.940;2024-03-23T06:56:37;9.30;99.90
32322;DHT22;61553;48.994;8.940;2024-03-23T06:59:02;9.20;99.90
32322;DHT22;61553;48.994;8.940;2024-03-23T07:01:28;9.30;99.90
32322;DHT22;61553;48.994;8.940;2024-03-23T07:03:54;9.20;99.90
32322;DHT22;61553;48.994;8.940;2024-03-23T07:06:20;9.20;99.90
32322;DHT22;61553;48.994;8.940;2024-03-23T07:08:46;9.10;99.90
32322;DHT22;61553;48.994;8.940;2024-03-23T07:11:11;9.10;99.90
32322;DHT22;61553;48.994;8.940;2024-03-23T07:13:37;9.10;99.90
32322;DHT22;61553;48.994;8.940;2024-03-23T07:16:03;9.10;99.90
32322;DHT22;61553;48.994;8.940;2024-03-23T07:18:28;9.10;99.90
32322;DHT22;61553;48.994;8.940;2024-03-23T07:20:57;9.00;99.90
32322;DHT22;61553;48.994;8.940;2024-03-23T07:23:24;8.90;99.90
32322;DHT22;61553;48.994;8.940;2024-03-23T07:25:58;8.90;99.90
32322;DHT22;61553;48.994;8.940;2024-03-23T07:28:24;9.00;99.90
32322;DHT22;61553;48.994;8.940;2024-03-23T07:31:02;8.90;99.90
32322;DHT22;61553;48.994;8.940;2024-03-23T07:33:29;8.90;99.90
32322;DHT22;61553;48.994;8.940;2024-03-23T07:35:54;9.00;99.90
32322;DHT22;61553;48.994;8.940;2024-03-23T07:38:21;9.00;99.90
32322;DHT22;61553;48.994;8.940;2024-03-23T07:40:46;9.00;99.90
32322;DHT22;61553;48.994;8.940;2024-03-23T07:43:12;8.80;99.90
32322;DHT22;61553;48.994;8.940;2024-03-23T07:45:38;8.70;99.90
32322;DHT22;61553;48.994;8.940;2024-03-23T07:48:04;8.70;99.90
32322;DHT22;61553;48.994;8.940;2024-03-23T07:50:30;8.50;99.90
32322;DHT22;61553;48.994;8.940;2024-03-23T07:52:55;8.40;99.90
32322;DHT22;61553;48.994;8.940;2024-03-23T07:55:21;8.30;99.90
32322;DHT22;61553;48.994;8.940;2024-03-23T07:57:47;8.10;99.90
32322;DHT22;61553;48.994;8.940;2024-03-23T08:00:13;8.00;99.90
32322;DHT22;61553;48.994;8.940;2024-03-23T08:02:39;7.90;99.90
32322;DHT22;61553;48.994;8.940;2024-03-23T08:05:05;7.80;99.90
32322;DHT22;61553;48.994;8.940;2024-03-23T08:07:31;7.80;99.90
32322;DHT22;61553;48.994;8.940;2024-03-23T08:09:56;7.90;99.90
32322;DHT22;61553;48.994;8.940;2024-03-23T08:12:24;7.80;99.90
32322;DHT22;61553;48.994;8.940;2024-03-23T08:14:50;8.30;99.90
32322;DHT22;61553;48.994;8.940;2024-03-23T08:17:15;9.10;99.90
32322;DHT22;61553;48.994;8.940;2024-03-23T08:19:41;9.80;99.90
32322;DHT22;61553;48.994;8.940;2024-03-23T08:22:06;9.80;99.90
32322;DHT22;61553;48.994;8.940;2024-03-23T08:24:34;9.80;99.90
32322;DHT22;61553;48.994;8.940;2024-03-23T08:26:59;10.20;99.90
32322;DHT22;61553;48.994;8.940;2024-03-23T08:29:25;10.60;99.90
32322;DHT22;61553;48.994;8.940;2024-03-23T08:31:50;11.10;99.90
32322;DHT22;61553;48.994;8.940;2024-03-23T08:34:16;12.40;99.90
32322;DHT22;61553;48.994;8.940;2024-03-23T08:36:42;13.70;99.90
32322;DHT22;61553;48.994;8.940;2024-03-23T08:39:07;15.00;99.90
32322;DHT22;61553;48.994;8.940;2024-03-23T08:41:33;16.10;99.80
32322;DHT22;61553;48.994;8.940;2024-03-23T08:43:59;16.20;94.10
32322;DHT22;61553;48.994;8.940;2024-03-23T08:46:25;14.50;95.30
32322;DHT22;61553;48.994;8.940;2024-03-23T08:48:51;13.50;97.40
32322;DHT22;61553;48.994;8.940;2024-03-23T08:51:18;12.90;99.60
32322;DHT22;61553;48.994;8.940;2024-03-23T08:53:44;13.20;98.00
32322;DHT22;61553;48.994;8.940;2024-03-23T08:56:11;12.60;98.80
32322;DHT22;61553;48.994;8.940;2024-03-23T08:58:38;12.00;99.90
32322;DHT22;61553;48.994;8.940;2024-03-23T09:01:08;11.60;99.90
32322;DHT22;61553;48.994;8.940;2024-03-23T09:03:35;11.50;99.90
32322;DHT22;61553;48.994;8.940;2024-03-23T09:06:06;11.30;99.90
32322;DHT22;61553;48.994;8.940;2024-03-23T09:08:32;11.10;99.90
32322;DHT22;61553;48.994;8.940;2024-03-23T09:10:57;11.10;99.90
32322;DHT22;61553;48.994;8.940;2024-03-23T09:13:23;11.40;99.90
32322;DHT22;61553;48.994;8.940;2024-03-23T09:15:50;11.90;99.90
32322;DHT22;61553;48.994;8.940;2024-03-23T09:18:16;13.40;99.90
32322;DHT22;61553;48.994;8.940;2024-03-23T09:20:42;13.90;97.20
32322;DHT22;61553;48.994;8.940;2024-03-23T09:23:08;14.20;95.60
32322;DHT22;61553;48.994;8.940;2024-03-23T09:25:37;14.40;95.30
32322;DHT22;61553;48.994;8.940;2024-03-23T09:28:04;14.50;94.00
32322;DHT22;61553;48.994;8.940;2024-03-23T09:30:30;14.20;94.70
32322;DHT22;61553;48.994;8.940;2024-03-23T09:32:57;13.90;93.50
32322;DHT22;61553;48.994;8.940;2024-03-23T09:35:22;15.60;93.20
32322;DHT22;61553;48.994;8.940;2024-03-23T09:37:48;17.50;86.60
32322;DHT22;61553;48.994;8.940;2024-03-23T09:40:14;19.10;74.50
32322;DHT22;61553;48.994;8.940;2024-03-23T09:42:40;20.30;65.70
32322;DHT22;61553;48.994;8.940;2024-03-23T09:45:21;21.20;62.90
32322;DHT22;61553;48.994;8.940;2024-03-23T09:47:47;21.20;56.50
32322;DHT22;61553;48.994;8.940;2024-03-23T09:50:13;21.50;56.30
32322;DHT22;61553;48.994;8.940;2024-03-23T09:52:40;22.10;56.10
32322;DHT22;61553;48.994;8.940;2024-03-23T09:55:08;22.90;52.00
32322;DHT22;61553;48.994;8.940;2024-03-23T09:57:34;21.50;50.50
32322;DHT22;61553;48.994;8.940;2024-03-23T09:59:59;19.10;54.10
32322;DHT22;61553;48.994;8.940;2024-03-23T10:02:26;16.50;57.40
32322;DHT22;61553;48.994;8.940;2024-03-23T10:04:51;14.50;61.90
32322;DHT22;61553;48.994;8.940;2024-03-23T10:07:20;13.30;67.20
32322;DHT22;61553;48.994;8.940;2024-03-23T10:09:47;12.60;69.80
32322;DHT22;61553;48.994;8.940;2024-03-23T10:12:16;11.90;73.00
32322;DHT22;61553;48.994;8.940;2024-03-23T10:14:42;11.70;76.30
32322;DHT22;61553;48.994;8.940;2024-03-23T10:17:21;11.30;77.70
32322;DHT22;61553;48.994;8.940;2024-03-23T10:19:51;11.00;81.60
32322;DHT22;61553;48.994;8.940;2024-03-23T10:22:21;10.70;81.40
32322;DHT22;61553;48.994;8.940;2024-03-23T10:24:48;10.50;82.40
32322;DHT22;61553;48.994;8.940;2024-03-23T10:27:21;10.10;82.90
32322;DHT22;61553;48.994;8.940;2024-03-23T10:29:50;9.90;85.60
32322;DHT22;61553;48.994;8.940;2024-03-23T10:32:19;9.70;91.60
32322;DHT22;61553;48.994;8.940;2024-03-23T10:34:45;9.40;93.00
32322;DHT22;61553;48.994;8.940;2024-03-23T10:37:11;9.40;95.40
32322;DHT22;61553;48.994;8.940;2024-03-23T10:39:38;9.20;97.00
32322;DHT22;61553;48.994;8.940;2024-03-23T10:42:06;9.30;99.70
32322;DHT22;61553;48.994;8.940;2024-03-23T10:44:33;9.00;99.90
32322;DHT22;61553;48.994;8.940;2024-03-23T10:46:59;8.90;99.90
32322;DHT22;61553;48.994;8.940;2024-03-23T10:49:28;8.90;99.90
32322;DHT22;61553;48.994;8.940;2024-03-23T10:51:56;9.00;99.90
32322;DHT22;61553;48.994;8.940;2024-03-23T10:54:23;8.90;99.90
32322;DHT22;61553;48.994;8.940;2024-03-23T10:56:59;9.00;99.90
32322;DHT22;61553;48.994;8.940;2024-03-23T10:59:27;9.00;99.90
32322;DHT22;61553;48.994;8.940;2024-03-23T11:02:03;9.00;99.90
32322;DHT22;61553;48.994;8.940;2024-03-23T11:04:36;9.10;99.90
32322;DHT22;61553;48.994;8.940;2024-03-23T11:09:56;9.10;99.90
32322;DHT22;61553;48.994;8.940;2024-03-23T11:15:04;9.80;99.90
32322;DHT22;61553;48.994;8.940;2024-03-23T11:17:31;12.10;99.90
32322;DHT22;61553;48.994;8.940;2024-03-23T11:20:03;14.00;95.30
32322;DHT22;61553;48.994;8.940;2024-03-23T11:25:25;16.10;86.40
32322;DHT22;61553;48.994;8.940;2024-03-23T11:27:55;16.30;84.00
32322;DHT22;61553;48.994;8.940;2024-03-23T11:30:23;17.10;80.60
32322;DHT22;61553;48.994;8.940;2024-03-23T11:32:51;16.90;74.90
32322;DHT22;61553;48.994;8.940;2024-03-23T11:38:14;16.70;72.30
32322;DHT22;61553;48.994;8.940;2024-03-23T11:40:49;16.50;75.70
32322;DHT22;61553;48.994;8.940;2024-03-23T11:43:17;15.90;73.20
32322;DHT22;61553;48.994;8.940;2024-03-23T11:45:52;15.60;74.80
32322;DHT22;61553;48.994;8.940;2024-03-23T11:48:24;15.50;73.00
32322;DHT22;61553;48.994;8.940;2024-03-23T11:50:54;15.60;72.20
32322;DHT22;61553;48.994;8.940;2024-03-23T11:53:24;15.30;73.40
32322;DHT22;61553;48.994;8.940;2024-03-23T11:58:17;13.40;75.40
32322;DHT22;61553;48.994;8.940;2024-03-23T12:00:52;12.90;76.60
32322;DHT22;61553;48.994;8.940;2024-03-23T12:03:19;12.60;76.30
32322;DHT22;61553;48.994;8.940;2024-03-23T12:05:50;12.20;76.70
32322;DHT22;61553;48.994;8.940;2024-03-23T12:08:19;12.00;77.40
32322;DHT22;61553;48.994;8.940;2024-03-23T12:11:04;11.90;79.20
32322;DHT22;61553;48.994;8.940;2024-03-23T12:13:30;12.10;80.40
32322;DHT22;61553;48.994;8.940;2024-03-23T12:16:18;12.20;79.20
32322;DHT22;61553;48.994;8.940;2024-03-23T12:18:49;11.90;78.60
32322;DHT22;61553;48.994;8.940;2024-03-23T12:21:16;11.70;79.20
32322;DHT22;61553;48.994;8.940;2024-03-23T12:23:43;11.60;81.90
32322;DHT22;61553;48.994;8.940;2024-03-23T12:26:12;11.50;81.10
32322;DHT22;61553;48.994;8.940;2024-03-23T12:28:38;11.60;83.10
32322;DHT22;61553;48.994;8.940;2024-03-23T12:31:04;11.70;83.40
32322;DHT22;61553;48.994;8.940;2024-03-23T12:33:31;11.80;83.30
32322;DHT22;61553;48.994;8.940;2024-03-23T12:35:56;12.10;82.20
32322;DHT22;61553;48.994;8.940;2024-03-23T12:38:22;12.30;85.10
32322;DHT22;61553;48.994;8.940;2024-03-23T12:40:50;12.10;82.00
32322;DHT22;61553;48.994;8.940;2024-03-23T12:43:17;12.00;82.30
32322;DHT22;61553;48.994;8.940;2024-03-23T12:45:49;11.90;83.70
32322;DHT22;61553;48.994;8.940;2024-03-23T12:48:15;11.80;86.00
32322;DHT22;61553;48.994;8.940;2024-03-23T12:50:41;11.80;83.60
32322;DHT22;61553;48.994;8.940;2024-03-23T12:53:06;11.90;84.10
32322;DHT22;61553;48.994;8.940;2024-03-23T12:55:34;12.00;84.40
32322;DHT22;61553;48.994;8.940;2024-03-23T12:58:00;11.70;83.80
32322;DHT22;61553;48.994;8.940;2024-03-23T13:00:26;11.70;84.50
32322;DHT22;61553;48.994;8.940;2024-03-23T13:02:51;11.80;81.90
32322;DHT22;61553;48.994;8.940;2024-03-23T13:05:17;11.90;80.30
32322;DHT22;61553;48.994;8.940;2024-03-23T13:07:43;11.90;77.60
32322;DHT22;61553;48.994;8.940;2024-03-23T13:10:08;12.00;79.50
32322;DHT22;61553;48.994;8.940;2024-03-23T13:12:34;12.40;79.00
32322;DHT22;61553;48.994;8.940;2024-03-23T13:15:00;12.50;77.80
32322;DHT22;61553;48.994;8.940;2024-03-23T13:17:26;12.60;79.20
32322;DHT22;61553;48.994;8.940;2024-03-23T13:19:53;12.90;79.50
32322;DHT22;61553;48.994;8.940;2024-03-23T13:22:18;13.20;76.90
32322;DHT22;61553;48.994;8.940;2024-03-23T13:24:44;13.30;75.00
32322;DHT22;61553;48.994;8.940;2024-03-23T13:27:10;13.40;74.50
32322;DHT22;61553;48.994;8.940;2024-03-23T13:29:36;13.00;75.60
32322;DHT22;61553;48.994;8.940;2024-03-23T13:32:03;12.60;76.30
32322;DHT22;61553;48.994;8.940;2024-03-23T13:34:29;12.10;78.70
32322;DHT22;61553;48.994;8.940;2024-03-23T13:36:55;10.90;88.40
32322;DHT22;61553;48.994;8.940;2024-03-23T13:39:23;9.60;90.80
32322;DHT22;61553;48.994;8.940;2024-03-23T13:41:49;9.30;93.80
32322;DHT22;61553;48.994;8.940;2024-03-23T13:44:14;9.20;95.40
32322;DHT22;61553;48.994;8.940;2024-03-23T13:46:42;9.40;97.30
32322;DHT22;61553;48.994;8.940;2024-03-23T13:49:30;9.40;97.00
32322;DHT22;61553;48.994;8.940;2024-03-23T13:51:58;9.40;94.90
32322;DHT22;61553;48.994;8.940;2024-03-23T13:54:24;9.40;95.00
32322;DHT22;61553;48.994;8.940;2024-03-23T13:56:51;9.60;92.90
32322;DHT22;61553;48.994;8.940;2024-03-23T13:59:16;9.90;92.70
32322;DHT22;61553;48.994;8.940;2024-03-23T14:01:43;10.20;91.20
32322;DHT22;61553;48.994;8.940;2024-03-23T14:04:09;10.10;90.30
32322;DHT22;61553;48.994;8.940;2024-03-23T14:06:35;10.20;90.30
32322;DHT22;61553;48.994;8.940;2024-03-23T14:09:00;10.10;88.50
32322;DHT22;61553;48.994;8.940;2024-03-23T14:11:26;9.80;88.00
32322;DHT22;61553;48.994;8.940;2024-03-23T14:13:53;9.90;89.40
32322;DHT22;61553;48.994;8.940;2024-03-23T14:16:20;10.10;90.40
32322;DHT22;61553;48.994;8.940;2024-03-23T14:18:48;10.70;91.10
32322;DHT22;61553;48.994;8.940;2024-03-23T14:21:14;11.10;88.00
32322;DHT22;61553;48.994;8.940;2024-03-23T14:23:39;11.00;85.50
32322;DHT22;61553;48.994;8.940;2024-03-23T14:26:08;11.00;86.80
32322;DHT22;61553;48.994;8.940;2024-03-23T14:28:34;11.00;84.60
32322;DHT22;61553;48.994;8.940;2024-03-23T14:31:00;10.90;85.30
32322;DHT22;61553;48.994;8.940;2024-03-23T14:33:26;10.80;83.60
32322;DHT22;61553;48.994;8.940;2024-03-23T14:35:53;10.70;83.60
32322;DHT22;61553;48.994;8.940;2024-03-23T14:38:19;10.70;84.40
32322;DHT22;61553;48.994;8.940;2024-03-23T14:40:46;10.80;84.50
32322;DHT22;61553;48.994;8.940;2024-03-23T14:43:12;10.80;84.30
32322;DHT22;61553;48.994;8.940;2024-03-23T14:45:37;10.80;86.50
32322;DHT22;61553;48.994;8.940;2024-03-23T14:48:03;10.80;86.10
32322;DHT22;61553;48.994;8.940;2024-03-23T14:50:29;10.90;85.80
32322;DHT22;61553;48.994;8.940;2024-03-23T14:52:55;10.80;82.90
32322;DHT22;61553;48.994;8.940;2024-03-23T14:55:20;10.60;82.30
32322;DHT22;61553;48.994;8.940;2024-03-23T14:57:46;10.30;83.00
32322;DHT22;61553;48.994;8.940;2024-03-23T15:00:12;9.80;83.50
32322;DHT22;61553;48.994;8.940;2024-03-23T15:02:38;9.40;86.00
32322;DHT22;61553;48.994;8.940;2024-03-23T15:05:04;9.30;88.40
32322;DHT22;61553;48.994;8.940;2024-03-23T15:07:33;9.10;89.80
32322;DHT22;61553;48.994;8.940;2024-03-23T15:09:59;9.30;89.70
32322;DHT22;61553;48.994;8.940;2024-03-23T15:12:24;9.70;90.00
32322;DHT22;61553;48.994;8.940;2024-03-23T15:14:50;10.10;89.70
32322;DHT22;61553;48.994;8.940;2024-03-23T15:17:15;10.20;88.30
32322;DHT22;61553;48.994;8.940;2024-03-23T15:19:41;10.30;87.70
32322;DHT22;61553;48.994;8.940;2024-03-23T15:22:08;10.10;86.40
32322;DHT22;61553;48.994;8.940;2024-03-23T15:24:34;10.00;87.00
32322;DHT22;61553;48.994;8.940;2024-03-23T15:27:02;10.00;86.60
32322;DHT22;61553;48.994;8.940;2024-03-23T15:29:28;9.80;86.90
32322;DHT22;61553;48.994;8.940;2024-03-23T15:31:53;9.50;87.00
32322;DHT22;61553;48.994;8.940;2024-03-23T15:34:19;9.30;88.10
32322;DHT22;61553;48.994;8.940;2024-03-23T15:36:47;9.30;88.60
32322;DHT22;61553;48.994;8.940;2024-03-23T15:39:14;9.30;89.40
32322;DHT22;61553;48.994;8.940;2024-03-23T15:41:40;9.30;90.00
32322;DHT22;61553;48.994;8.940;2024-03-23T15:44:06;9.40;90.20
32322;DHT22;61553;48.994;8.940;2024-03-23T15:46:32;9.40;90.50
32322;DHT22;61553;48.994;8.940;2024-03-23T15:48:57;9.40;90.40
32322;DHT22;61553;48.994;8.940;2024-03-23T15:51:23;9.50;90.40
32322;DHT22;61553;48.994;8.940;2024-03-23T15:53:49;9.40;89.70
32322;DHT22;61553;48.994;8.940;2024-03-23T15:56:17;9.30;90.80
32322;DHT22;61553;48.994;8.940;2024-03-23T15:58:43;9.20;90.80
32322;DHT22;61553;48.994;8.940;2024-03-23T16:01:09;9.10;91.20
32322;DHT22;61553;48.994;8.940;2024-03-23T16:03:36;9.00;91.90
32322;DHT22;61553;48.994;8.940;2024-03-23T16:06:03;8.80;92.10
32322;DHT22;61553;48.994;8.940;2024-03-23T16:08:30;8.70;92.60
32322;DHT22;61553;48.994;8.940;2024-03-23T16:11:05;8.60;93.00
32322;DHT22;61553;48.994;8.940;2024-03-23T16:13:32;8.60;93.40
32322;DHT22;61553;48.994;8.940;2024-03-23T16:15:59;8.60;93.90
32322;DHT22;61553;48.994;8.940;2024-03-23T16:18:25;8.60;94.60
32322;DHT22;61553;48.994;8.940;2024-03-23T16:21:00;8.60;94.50
32322;DHT22;61553;48.994;8.940;2024-03-23T16:23:27;8.60;94.50
32322;DHT22;61553;48.994;8.940;2024-03-23T16:25:55;8.60;94.70
32322;DHT22;61553;48.994;8.940;2024-03-23T16:28:29;8.60;95.10
32322;DHT22;61553;48.994;8.940;2024-03-23T16:33:23;8.60;96.00
32322;DHT22;61553;48.994;8.940;2024-03-23T16:36:15;8.70;95.50
32322;DHT22;61553;48.994;8.940;2024-03-23T16:38:42;8.60;95.30
32322;DHT22;61553;48.994;8.940;2024-03-23T16:41:12;8.40;96.10
32322;DHT22;61553;48.994;8.940;2024-03-23T16:43:41;8.40;95.50
32322;DHT22;61553;48.994;8.940;2024-03-23T16:46:08;8.40;95.90
32322;DHT22;61553;48.994;8.940;2024-03-23T16:48:38;8.40;95.90